Smyer, Texas
Current Conditions -  °F | °C
As of 1:53 PM on Saturday 25 Oct 2014 (Local Time) from KLBB Reporting Station
Clear Clear  
Wind Chill: 83°   Ceiling: Unl
Heat Index: 83°   Visibility: 10mi
Dew Point: 51°   Wind: 9mph
Humidity: 33%   Direction: 210°SSW
Pressure: 30.16"   Gusts: 22mph
Location:  33.58°N, 102.16°W
Report Text: KLBB 251853Z 21008G19KT 10SM CLR 28/11 A3016 RMK AO2 SLP170 T02830106 $
Loading
Personal Weather Stations






























Interactive Weather Map
Tropical Storm Tracking
New forecast layout! Learn more

10-Day Weather Forecast

Advertisements
Track Severe Weather on mobile